Gulbeniz A — TCZK8 — position and weather

sailwx.info

Track history (hours):
 
Tides and Currents Weather Stations Pressure Air Temp Water Temp Dewpoint Dewpoint Depression Visibility Wind Speed Wind Dir Waves Ship Positions

Gulbeniz A

Last reported at 2017-Oct-08 07:33 UTC. Time now 2017-Oct-16 22:19 UTC.
Position N 37°32' E 023°46'.
Warning: this ship's position is 8 days out of date.

Length 210 m; draft 10.6 m.

Type: Ship (hazmat cat A). MMSI: 271042493.

Date/timePositionNaut miles runAvg speedWind from/ knotsBaromVisibWave heightAir tempDewpointWater temp
2017-Oct-08 07:33N 37°32' E 023°46'213.3
2017-Oct-08 07:24N 37°34' E 023°45'513.6
2017-Oct-08 07:00N 37°39' E 023°43'714.3
2017-Oct-08 06:30N 37°45' E 023°39'612.8
2017-Oct-08 06:00N 37°51' E 023°37'5 9.9
2017-Oct-08 05:30N 37°56' E 023°36'1 2.5
2017-Oct-08 04:59N 37°57' E 023°35'0 0.0
2017-Oct-08 04:29N 37°57' E 023°35'0 0.0
2017-Oct-08 03:59N 37°57' E 023°35'0 0.0
2017-Oct-08 03:29N 37°57' E 023°35'0 0.0
2017-Oct-08 02:59N 37°57' E 023°35'0 0.0
2017-Oct-08 02:29N 37°57' E 023°35'0 0.0
2017-Oct-08 01:59N 37°57' E 023°35'0 0.0
2017-Oct-08 01:29N 37°57' E 023°35'0 0.0
2017-Oct-08 00:59N 37°57' E 023°35'0 0.0
2017-Oct-08 00:29N 37°57' E 023°35'0 0.0
2017-Oct-07 23:59N 37°57' E 023°35'0 0.0
2017-Oct-07 23:29N 37°57' E 023°35'0 0.0
2017-Oct-07 22:59N 37°57' E 023°35'0 0.0
2017-Oct-07 22:29N 37°57' E 023°35'0 0.0
2017-Oct-07 21:59N 37°57' E 023°35'0 0.0
2017-Oct-07 21:29N 37°57' E 023°35'0 0.0
2017-Oct-07 20:59N 37°57' E 023°35'0 0.0
2017-Oct-07 20:29N 37°57' E 023°35'0 0.0
2017-Oct-07 19:59N 37°57' E 023°35'0 0.0
2017-Oct-07 19:30N 37°57' E 023°35'2 3.8
2017-Oct-07 19:00N 37°55' E 023°35'1 2.9
2017-Oct-07 18:30N 37°54' E 023°35'3 5.9
2017-Oct-07 18:00N 37°51' E 023°33'1 1.7
2017-Oct-07 17:29N 37°52' E 023°32'0 0.1
2017-Oct-07 16:59N 37°52' E 023°32'0 0.3
2017-Oct-07 16:29N 37°52' E 023°32'0 0.0
2017-Oct-07 15:59N 37°52' E 023°32'0 0.0
2017-Oct-07 15:29N 37°52' E 023°32'0 0.0
2017-Oct-07 14:59N 37°52' E 023°32'0 0.6
2017-Oct-07 14:29N 37°52' E 023°32'0 0.1
2017-Oct-07 13:59N 37°52' E 023°32'0 0.0
2017-Oct-07 13:29N 37°52' E 023°32'0 0.1
2017-Oct-07 12:59N 37°52' E 023°32'0 0.1
2017-Oct-07 12:29N 37°52' E 023°32'0 0.1
2017-Oct-07 11:59N 37°52' E 023°32'0 0.1
2017-Oct-07 11:29N 37°52' E 023°32'0 0.1
2017-Oct-07 10:59N 37°52' E 023°32'0 0.0
2017-Oct-07 10:29N 37°52' E 023°32'0 0.1
2017-Oct-07 09:59N 37°52' E 023°32'0 0.1
2017-Oct-07 09:29N 37°52' E 023°32'0 0.0
2017-Oct-07 08:59N 37°52' E 023°32'0 0.1
2017-Oct-07 08:29N 37°52' E 023°32'0 0.1
2017-Oct-07 07:59N 37°52' E 023°32'0 0.0
2017-Oct-07 07:29N 37°52' E 023°32'0 0.0
2017-Oct-07 06:59N 37°52' E 023°32'0 0.0
2017-Oct-07 06:29N 37°52' E 023°32'0 0.0
2017-Oct-07 05:59N 37°52' E 023°32'0 0.2
2017-Oct-07 05:29N 37°52' E 023°32'0 0.2
2017-Oct-07 05:00N 37°52' E 023°32'1 2.7
2017-Oct-07 04:30N 37°52' E 023°34'2 4.0
2017-Oct-07 04:00N 37°54' E 023°34'0 0.1
2017-Oct-07 03:30N 37°54' E 023°34'1 2.8
2017-Oct-07 03:00N 37°54' E 023°35'2 4.1
2017-Oct-07 02:30N 37°52' E 023°37'4 8.2
2017-Oct-07 02:00N 37°49' E 023°40'510.9
2017-Oct-07 01:30N 37°44' E 023°43'510.2
2017-Oct-07 01:00N 37°39' E 023°45'510.8
2017-Oct-07 00:30N 37°34' E 023°46'611.2
2017-Oct-07 00:00N 37°28' E 023°46'911.6
2017-Oct-06 23:15N 37°19' E 023°47'1111.0
2017-Oct-06 22:12N 37°08' E 023°46'211.1
2017-Oct-06 22:00N 37°06' E 023°44'911.1
2017-Oct-06 21:11N 36°58' E 023°38'211.2
2017-Oct-06 21:00N 36°57' E 023°36'611.2
2017-Oct-06 20:28N 36°52' E 023°32'511.2
2017-Oct-06 20:00N 36°47' E 023°30'35911.5
2017-Oct-05 12:45N 37°46' E 016°04'1412.6
2017-Oct-05 11:41N 37°50' E 015°47'212.6
2017-Oct-05 11:30N 37°51' E 015°45'712.4
2017-Oct-05 10:57N 37°54' E 015°37'512.4
2017-Oct-05 10:30N 37°59' E 015°34'612.4
2017-Oct-05 10:00N 38°05' E 015°34'713.0
2017-Oct-05 09:30N 38°12' E 015°36'714.2
2017-Oct-05 09:00N 38°18' E 015°40'714.8
2017-Oct-05 08:30N 38°23' E 015°34'816.0
2017-Oct-05 08:00N 38°29' E 015°27'713.6
2017-Oct-05 07:30N 38°34' E 015°21'612.3
2017-Oct-05 07:00N 38°38' E 015°15'612.4
2017-Oct-05 06:30N 38°43' E 015°10'612.1
2017-Oct-05 05:59N 38°46' E 015°03'612.3
2017-Oct-05 05:30N 38°49' E 014°56'612.3
2017-Oct-05 05:00N 38°52' E 014°50'612.4
2017-Oct-05 04:30N 38°56' E 014°43'46312.4
2017-Oct-03 15:06N 42°44' E 005°51'112.7
2017-Oct-03 15:01N 42°45' E 005°50'1312.8
2017-Oct-03 14:01N 42°52' E 005°36'612.8
2017-Oct-03 13:31N 42°56' E 005°29'612.9
2017-Oct-03 13:01N 43°00' E 005°22'612.5
2017-Oct-03 12:30N 43°04' E 005°15'612.7
2017-Oct-03 12:01N 43°08' E 005°08'612.7
2017-Oct-03 11:30N 43°12' E 005°01'1112.1
2017-Oct-03 10:34N 43°23' E 004°57'1 8.6
2017-Oct-03 10:30N 43°23' E 004°56'4 1.0
2017-Oct-03 06:12N 43°24' E 004°51'0 0.0
2017-Oct-03 06:00N 43°24' E 004°51'0 0.0
2017-Oct-03 05:30N 43°24' E 004°51'0 0.0
2017-Oct-03 05:00N 43°24' E 004°51'0 0.0
2017-Oct-03 04:30N 43°24' E 004°51'0 0.0
2017-Oct-03 04:00N 43°24' E 004°51'0 0.0
2017-Oct-03 03:30N 43°24' E 004°51'0 0.0
2017-Oct-03 03:00N 43°24' E 004°51'0 0.0
2017-Oct-03 02:30N 43°24' E 004°51'0 0.0
2017-Oct-03 02:00N 43°24' E 004°51'0 0.0
2017-Oct-03 01:30N 43°24' E 004°51'0 0.0
2017-Oct-03 01:00N 43°24' E 004°51'0 0.0
2017-Oct-03 00:30N 43°24' E 004°51'0 0.0
2017-Oct-03 00:00N 43°24' E 004°51'1 1.0
2017-Oct-02 23:30N 43°24' E 004°52'5 9.2
2017-Oct-02 23:00N 43°23' E 004°58'510.3
2017-Oct-02 22:30N 43°18' E 004°60'713.8
2017-Oct-02 22:00N 43°11' E 005°02'816.5
2017-Oct-02 21:30N 43°04' E 004°57'510.8
2017-Oct-02 21:00N 42°59' E 004°54'0 0.5
2017-Oct-02 20:30N 42°59' E 004°54'0 0.5
2017-Oct-02 20:00N 42°59' E 004°55'0 0.4
2017-Oct-02 19:30N 42°59' E 004°55'0 0.3
2017-Oct-02 19:00N 42°59' E 004°55'0 0.3
2017-Oct-02 18:30N 42°59' E 004°55'0 0.3
2017-Oct-02 18:00N 42°59' E 004°55'0 0.3
2017-Oct-02 17:30N 42°59' E 004°56'0 0.4
2017-Oct-02 17:00N 42°59' E 004°56'1 1.4
2017-Oct-02 16:31N 42°60' E 004°56'612.4
2017-Oct-02 16:01N 43°05' E 005°02'0 0.6
2017-Oct-02 15:29N 43°05' E 005°02'0 0.2
2017-Oct-02 14:59N 43°05' E 005°01'0 0.2
2017-Oct-02 14:29N 43°05' E 005°01'0 0.2
2017-Oct-02 13:59N 43°05' E 005°01'0 0.2
2017-Oct-02 13:29N 43°05' E 005°01'0 0.1
2017-Oct-02 12:59N 43°05' E 005°01'0 0.2
2017-Oct-02 12:29N 43°05' E 005°01'0 0.2
2017-Oct-02 11:59N 43°05' E 005°01'0 0.2
2017-Oct-02 11:29N 43°05' E 005°01'0 0.1
2017-Oct-02 10:59N 43°05' E 005°01'0 0.0
2017-Oct-02 10:29N 43°05' E 005°01'0 0.2
2017-Oct-02 09:59N 43°05' E 005°00'0 0.6
2017-Oct-02 09:30N 43°05' E 005°00'3 5.5
2017-Oct-02 09:01N 43°07' E 004°57'713.1
2017-Oct-02 08:30N 43°02' E 004°51'713.1
2017-Oct-02 08:00N 42°57' E 004°46'612.9
2017-Oct-02 07:30N 42°52' E 004°40'612.7
2017-Oct-02 07:00N 42°47' E 004°35'612.7
2017-Oct-02 06:30N 42°42' E 004°29'612.7
2017-Oct-02 06:00N 42°37' E 004°24'612.6
2017-Oct-02 05:30N 42°32' E 004°18'612.4
2017-Oct-02 05:00N 42°27' E 004°13'612.6
2017-Oct-02 04:30N 42°23' E 004°08'712.9
2017-Oct-02 04:00N 42°17' E 004°02'10212.9
2017-Oct-01 20:06N 41°18' E 002°10'19 1.6
2017-Oct-01 08:35N 41°03' E 001°56'116.6
2017-Oct-01 08:30N 41°02' E 001°55'816.5
2017-Oct-01 08:00N 40°55' E 001°48'  
2017-Sep-29 01:31N 37°41' W 000°24'816.3
2017-Sep-29 01:01N 37°34' W 000°30'1016.2
2017-Sep-29 00:23N 37°27' W 000°39'616.2
2017-Sep-29 00:00N 37°23' W 000°44'816.1
2017-Sep-28 23:31N 37°17' W 000°51'915.9
2017-Sep-28 22:56N 37°11' W 000°59'21415.7
2017-Sep-28 09:18N 36°01' W 005°12'516.6
2017-Sep-28 09:00N 35°59' W 005°17'816.1
2017-Sep-28 08:31N 35°57' W 005°27'  
Track history (hours):
 
Tides and Currents Weather Stations Pressure Air Temp Water Temp Dewpoint Dewpoint Depression Visibility Wind Speed Wind Dir Waves Ship Positions

Gulbeniz A

Last reported at 2017-Oct-08 07:33 UTC. Time now 2017-Oct-16 22:19 UTC.
Position N 37°32' E 023°46'.
Warning: this ship's position is 8 days out of date.

Length 210 m; draft 10.6 m.

Type: Ship (hazmat cat A). MMSI: 271042493.

Date/timePositionNaut miles runAvg speedWind from/ knotsBaromVisibWave heightAir tempDewpointWater temp
2017-Oct-08 07:33N 37°32' E 023°46'213.3
2017-Oct-08 07:24N 37°34' E 023°45'513.6
2017-Oct-08 07:00N 37°39' E 023°43'714.3
2017-Oct-08 06:30N 37°45' E 023°39'612.8
2017-Oct-08 06:00N 37°51' E 023°37'5 9.9
2017-Oct-08 05:30N 37°56' E 023°36'1 2.5
2017-Oct-08 04:59N 37°57' E 023°35'0 0.0
2017-Oct-08 04:29N 37°57' E 023°35'0 0.0
2017-Oct-08 03:59N 37°57' E 023°35'0 0.0
2017-Oct-08 03:29N 37°57' E 023°35'0 0.0
2017-Oct-08 02:59N 37°57' E 023°35'0 0.0
2017-Oct-08 02:29N 37°57' E 023°35'0 0.0
2017-Oct-08 01:59N 37°57' E 023°35'0 0.0
2017-Oct-08 01:29N 37°57' E 023°35'0 0.0
2017-Oct-08 00:59N 37°57' E 023°35'0 0.0
2017-Oct-08 00:29N 37°57' E 023°35'0 0.0
2017-Oct-07 23:59N 37°57' E 023°35'0 0.0
2017-Oct-07 23:29N 37°57' E 023°35'0 0.0
2017-Oct-07 22:59N 37°57' E 023°35'0 0.0
2017-Oct-07 22:29N 37°57' E 023°35'0 0.0
2017-Oct-07 21:59N 37°57' E 023°35'0 0.0
2017-Oct-07 21:29N 37°57' E 023°35'0 0.0
2017-Oct-07 20:59N 37°57' E 023°35'0 0.0
2017-Oct-07 20:29N 37°57' E 023°35'0 0.0
2017-Oct-07 19:59N 37°57' E 023°35'0 0.0
2017-Oct-07 19:30N 37°57' E 023°35'2 3.8
2017-Oct-07 19:00N 37°55' E 023°35'1 2.9
2017-Oct-07 18:30N 37°54' E 023°35'3 5.9
2017-Oct-07 18:00N 37°51' E 023°33'1 1.7
2017-Oct-07 17:29N 37°52' E 023°32'0 0.1
2017-Oct-07 16:59N 37°52' E 023°32'0 0.3
2017-Oct-07 16:29N 37°52' E 023°32'0 0.0
2017-Oct-07 15:59N 37°52' E 023°32'0 0.0
2017-Oct-07 15:29N 37°52' E 023°32'0 0.0
2017-Oct-07 14:59N 37°52' E 023°32'0 0.6
2017-Oct-07 14:29N 37°52' E 023°32'0 0.1
2017-Oct-07 13:59N 37°52' E 023°32'0 0.0
2017-Oct-07 13:29N 37°52' E 023°32'0 0.1
2017-Oct-07 12:59N 37°52' E 023°32'0 0.1
2017-Oct-07 12:29N 37°52' E 023°32'0 0.1
2017-Oct-07 11:59N 37°52' E 023°32'0 0.1
2017-Oct-07 11:29N 37°52' E 023°32'0 0.1
2017-Oct-07 10:59N 37°52' E 023°32'0 0.0
2017-Oct-07 10:29N 37°52' E 023°32'0 0.1
2017-Oct-07 09:59N 37°52' E 023°32'0 0.1
2017-Oct-07 09:29N 37°52' E 023°32'0 0.0
2017-Oct-07 08:59N 37°52' E 023°32'0 0.1
2017-Oct-07 08:29N 37°52' E 023°32'0 0.1
2017-Oct-07 07:59N 37°52' E 023°32'0 0.0
2017-Oct-07 07:29N 37°52' E 023°32'0 0.0
2017-Oct-07 06:59N 37°52' E 023°32'0 0.0
2017-Oct-07 06:29N 37°52' E 023°32'0 0.0
2017-Oct-07 05:59N 37°52' E 023°32'0 0.2
2017-Oct-07 05:29N 37°52' E 023°32'0 0.2
2017-Oct-07 05:00N 37°52' E 023°32'1 2.7
2017-Oct-07 04:30N 37°52' E 023°34'2 4.0
2017-Oct-07 04:00N 37°54' E 023°34'0 0.1
2017-Oct-07 03:30N 37°54' E 023°34'1 2.8
2017-Oct-07 03:00N 37°54' E 023°35'2 4.1
2017-Oct-07 02:30N 37°52' E 023°37'4 8.2
2017-Oct-07 02:00N 37°49' E 023°40'510.9
2017-Oct-07 01:30N 37°44' E 023°43'510.2
2017-Oct-07 01:00N 37°39' E 023°45'510.8
2017-Oct-07 00:30N 37°34' E 023°46'611.2
2017-Oct-07 00:00N 37°28' E 023°46'911.6
2017-Oct-06 23:15N 37°19' E 023°47'1111.0
2017-Oct-06 22:12N 37°08' E 023°46'211.1
2017-Oct-06 22:00N 37°06' E 023°44'911.1
2017-Oct-06 21:11N 36°58' E 023°38'211.2
2017-Oct-06 21:00N 36°57' E 023°36'611.2
2017-Oct-06 20:28N 36°52' E 023°32'511.2
2017-Oct-06 20:00N 36°47' E 023°30'35911.5
2017-Oct-05 12:45N 37°46' E 016°04'1412.6
2017-Oct-05 11:41N 37°50' E 015°47'212.6
2017-Oct-05 11:30N 37°51' E 015°45'712.4
2017-Oct-05 10:57N 37°54' E 015°37'512.4
2017-Oct-05 10:30N 37°59' E 015°34'612.4
2017-Oct-05 10:00N 38°05' E 015°34'713.0
2017-Oct-05 09:30N 38°12' E 015°36'714.2
2017-Oct-05 09:00N 38°18' E 015°40'714.8
2017-Oct-05 08:30N 38°23' E 015°34'816.0
2017-Oct-05 08:00N 38°29' E 015°27'713.6
2017-Oct-05 07:30N 38°34' E 015°21'612.3
2017-Oct-05 07:00N 38°38' E 015°15'612.4
2017-Oct-05 06:30N 38°43' E 015°10'612.1
2017-Oct-05 05:59N 38°46' E 015°03'612.3
2017-Oct-05 05:30N 38°49' E 014°56'612.3
2017-Oct-05 05:00N 38°52' E 014°50'612.4
2017-Oct-05 04:30N 38°56' E 014°43'46312.4
2017-Oct-03 15:06N 42°44' E 005°51'112.7
2017-Oct-03 15:01N 42°45' E 005°50'1312.8
2017-Oct-03 14:01N 42°52' E 005°36'612.8
2017-Oct-03 13:31N 42°56' E 005°29'612.9
2017-Oct-03 13:01N 43°00' E 005°22'612.5
2017-Oct-03 12:30N 43°04' E 005°15'612.7
2017-Oct-03 12:01N 43°08' E 005°08'612.7
2017-Oct-03 11:30N 43°12' E 005°01'1112.1
2017-Oct-03 10:34N 43°23' E 004°57'1 8.6
2017-Oct-03 10:30N 43°23' E 004°56'4 1.0
2017-Oct-03 06:12N 43°24' E 004°51'0 0.0
2017-Oct-03 06:00N 43°24' E 004°51'0 0.0
2017-Oct-03 05:30N 43°24' E 004°51'0 0.0
2017-Oct-03 05:00N 43°24' E 004°51'0 0.0
2017-Oct-03 04:30N 43°24' E 004°51'0 0.0
2017-Oct-03 04:00N 43°24' E 004°51'0 0.0
2017-Oct-03 03:30N 43°24' E 004°51'0 0.0
2017-Oct-03 03:00N 43°24' E 004°51'0 0.0
2017-Oct-03 02:30N 43°24' E 004°51'0 0.0
2017-Oct-03 02:00N 43°24' E 004°51'0 0.0
2017-Oct-03 01:30N 43°24' E 004°51'0 0.0
2017-Oct-03 01:00N 43°24' E 004°51'0 0.0
2017-Oct-03 00:30N 43°24' E 004°51'0 0.0
2017-Oct-03 00:00N 43°24' E 004°51'1 1.0
2017-Oct-02 23:30N 43°24' E 004°52'5 9.2
2017-Oct-02 23:00N 43°23' E 004°58'510.3
2017-Oct-02 22:30N 43°18' E 004°60'713.8
2017-Oct-02 22:00N 43°11' E 005°02'816.5
2017-Oct-02 21:30N 43°04' E 004°57'510.8
2017-Oct-02 21:00N 42°59' E 004°54'0 0.5
2017-Oct-02 20:30N 42°59' E 004°54'0 0.5
2017-Oct-02 20:00N 42°59' E 004°55'0 0.4
2017-Oct-02 19:30N 42°59' E 004°55'0 0.3
2017-Oct-02 19:00N 42°59' E 004°55'0 0.3
2017-Oct-02 18:30N 42°59' E 004°55'0 0.3
2017-Oct-02 18:00N 42°59' E 004°55'0 0.3
2017-Oct-02 17:30N 42°59' E 004°56'0 0.4
2017-Oct-02 17:00N 42°59' E 004°56'1 1.4
2017-Oct-02 16:31N 42°60' E 004°56'612.4
2017-Oct-02 16:01N 43°05' E 005°02'0 0.6
2017-Oct-02 15:29N 43°05' E 005°02'0 0.2
2017-Oct-02 14:59N 43°05' E 005°01'0 0.2
2017-Oct-02 14:29N 43°05' E 005°01'0 0.2
2017-Oct-02 13:59N 43°05' E 005°01'0 0.2
2017-Oct-02 13:29N 43°05' E 005°01'0 0.1
2017-Oct-02 12:59N 43°05' E 005°01'0 0.2
2017-Oct-02 12:29N 43°05' E 005°01'0 0.2
2017-Oct-02 11:59N 43°05' E 005°01'0 0.2
2017-Oct-02 11:29N 43°05' E 005°01'0 0.1
2017-Oct-02 10:59N 43°05' E 005°01'0 0.0
2017-Oct-02 10:29N 43°05' E 005°01'0 0.2
2017-Oct-02 09:59N 43°05' E 005°00'0 0.6
2017-Oct-02 09:30N 43°05' E 005°00'3 5.5
2017-Oct-02 09:01N 43°07' E 004°57'713.1
2017-Oct-02 08:30N 43°02' E 004°51'713.1
2017-Oct-02 08:00N 42°57' E 004°46'612.9
2017-Oct-02 07:30N 42°52' E 004°40'612.7
2017-Oct-02 07:00N 42°47' E 004°35'612.7
2017-Oct-02 06:30N 42°42' E 004°29'612.7
2017-Oct-02 06:00N 42°37' E 004°24'612.6
2017-Oct-02 05:30N 42°32' E 004°18'612.4
2017-Oct-02 05:00N 42°27' E 004°13'612.6
2017-Oct-02 04:30N 42°23' E 004°08'712.9
2017-Oct-02 04:00N 42°17' E 004°02'10212.9
2017-Oct-01 20:06N 41°18' E 002°10'19 1.6
2017-Oct-01 08:35N 41°03' E 001°56'116.6
2017-Oct-01 08:30N 41°02' E 001°55'816.5
2017-Oct-01 08:00N 40°55' E 001°48'  
2017-Sep-29 01:31N 37°41' W 000°24'816.3
2017-Sep-29 01:01N 37°34' W 000°30'1016.2
2017-Sep-29 00:23N 37°27' W 000°39'616.2
2017-Sep-29 00:00N 37°23' W 000°44'816.1
2017-Sep-28 23:31N 37°17' W 000°51'915.9
2017-Sep-28 22:56N 37°11' W 000°59'21415.7
2017-Sep-28 09:18N 36°01' W 005°12'516.6
2017-Sep-28 09:00N 35°59' W 005°17'816.1
2017-Sep-28 08:31N 35°57' W 005°27'  

Dump ship's entire track history